Time;durP1;ratioP1;P1;durP2;ratioP2;P2;SDS_P1;SDS_P2;PMS_P1;PMS_P2;Temp;Humidity;BMP_temperature;BMP_pressure;BME280_temperature;BME280_humidity;BME280_pressure;Samples;Min_cycle;Max_cycle;Signal;HPM_P1;HPM_P2
2021/11/18 00:00:33;;;;;;;20.75;13.62;;;;;;;9.50;53.20;102413.52;1731252;81;21526;-56
2021/11/18 00:03:00;;;;;;;17.87;13.50;;;;;;;9.45;53.28;102413.47;1735527;82;21469;-60
2021/11/18 00:05:27;;;;;;;18.25;12.95;;;;;;;9.41;53.30;102411.70;1739964;81;21558;-57
2021/11/18 00:07:54;;;;;;;18.35;13.43;;;;;;;9.42;53.37;102414.73;1735202;81;21014;-59
2021/11/18 00:10:25;;;;;;;18.98;12.45;;;;;;;9.39;53.33;102413.42;1736396;81;21007;-56
2021/11/18 00:12:52;;;;;;;19.90;12.78;;;;;;;9.35;53.12;102409.05;1736088;81;21010;-58
2021/11/18 00:15:20;;;;;;;17.65;13.28;;;;;;;9.32;53.15;102421.12;1732450;82;20979;-57
2021/11/18 00:17:46;;;;;;;17.00;12.33;;;;;;;9.30;53.06;102421.11;1736402;81;21511;-58
2021/11/18 00:20:15;;;;;;;21.55;14.65;;;;;;;9.30;53.33;102421.11;1733805;81;21498;-57
2021/11/18 00:22:44;;;;;;;18.12;12.68;;;;;;;9.31;53.37;102420.27;1733254;81;21027;-56
2021/11/18 00:25:11;;;;;;;17.15;11.88;;;;;;;9.37;53.26;102419.45;1730882;81;21514;-55
2021/11/18 00:27:38;;;;;;;16.93;12.00;;;;;;;9.40;52.95;102419.04;1723056;82;21030;-58
2021/11/18 00:30:07;;;;;;;19.87;12.82;;;;;;;9.43;52.63;102416.48;1731235;81;21046;-56
2021/11/18 00:32:35;;;;;;;15.70;11.40;;;;;;;9.38;52.51;102422.05;1730582;81;21065;-53
2021/11/18 00:35:05;;;;;;;19.98;10.80;;;;;;;9.37;52.64;102415.13;1730538;82;21095;-57
2021/11/18 00:37:32;;;;;;;16.52;10.85;;;;;;;9.38;52.67;102418.58;1730467;81;21034;-56
2021/11/18 00:39:59;;;;;;;17.73;11.88;;;;;;;9.38;52.55;102423.77;1706230;82;21108;-57
2021/11/18 00:42:25;;;;;;;18.48;11.78;;;;;;;9.36;52.58;102421.17;1732440;81;21038;-55
2021/11/18 00:44:57;;;;;;;17.95;11.78;;;;;;;9.35;52.68;102420.74;1733788;81;21014;-56
2021/11/18 00:47:24;;;;;;;20.77;12.50;;;;;;;9.36;52.67;102410.78;1729573;82;21063;-56
2021/11/18 00:49:51;;;;;;;19.73;12.47;;;;;;;9.37;52.84;102417.73;1726353;81;20994;-54
2021/11/18 00:52:18;;;;;;;20.10;12.93;;;;;;;9.36;52.91;102417.27;1718794;82;21030;-53
2021/11/18 00:54:44;;;;;;;18.73;11.97;;;;;;;9.37;52.97;102415.13;1731221;82;21070;-53
2021/11/18 00:57:12;;;;;;;18.05;11.73;;;;;;;9.38;52.99;102415.98;1731266;81;20999;-55
2021/11/18 00:59:39;;;;;;;17.35;12.00;;;;;;;9.36;52.89;102414.67;1729716;81;21050;-53
2021/11/18 01:02:07;;;;;;;17.87;12.07;;;;;;;9.37;52.95;102407.34;1728101;81;21038;-58
2021/11/18 01:04:34;;;;;;;19.37;12.47;;;;;;;9.39;52.85;102408.22;1727389;81;21018;-56
2021/11/18 01:07:00;;;;;;;20.52;12.18;;;;;;;9.39;52.82;102405.63;1722760;81;21046;-54
2021/11/18 01:09:26;;;;;;;15.45;11.22;;;;;;;9.38;52.80;102409.06;1723060;81;20986;-56
2021/11/18 01:11:53;;;;;;;19.48;13.32;;;;;;;9.37;52.87;102401.27;1724608;81;21078;-56
2021/11/18 01:14:21;;;;;;;18.42;12.85;;;;;;;9.36;53.01;102402.98;1725997;81;20975;-54
2021/11/18 01:16:48;;;;;;;18.77;13.55;;;;;;;9.39;53.00;102409.52;1725852;81;21018;-58
2021/11/18 01:19:16;;;;;;;16.75;11.73;;;;;;;9.40;53.07;102407.34;1732012;82;21627;-57
2021/11/18 01:21:46;;;;;;;20.85;13.20;;;;;;;9.40;52.88;102402.16;1721971;81;21451;-56
2021/11/18 01:24:13;;;;;;;18.45;12.30;;;;;;;9.36;52.78;102404.28;1745666;81;21483;-58
2021/11/18 01:26:42;;;;;;;16.42;11.97;;;;;;;9.35;52.86;102401.68;1742561;81;21023;-56
2021/11/18 01:29:09;;;;;;;16.70;12.00;;;;;;;9.34;53.04;102412.91;1736660;81;21211;-58
2021/11/18 01:31:36;;;;;;;18.73;11.15;;;;;;;9.35;53.12;102409.05;1723417;81;21063;-56
2021/11/18 01:34:03;;;;;;;17.57;11.40;;;;;;;9.38;53.06;102403.87;1732410;82;20994;-56
2021/11/18 01:36:32;;;;;;;18.87;11.63;;;;;;;9.38;53.03;102405.17;1731361;81;21531;-56
2021/11/18 01:39:05;;;;;;;13.80;9.78;;;;;;;9.37;53.10;102411.23;1731053;81;21023;-56
2021/11/18 01:41:32;;;;;;;18.50;11.18;;;;;;;9.36;53.20;102408.18;1731534;81;20987;-54
2021/11/18 01:44:04;;;;;;;16.37;11.83;;;;;;;9.35;53.20;102406.45;1732536;81;20999;-57
2021/11/18 01:46:34;;;;;;;21.48;12.70;;;;;;;9.32;53.28;102403.81;1732654;81;21506;-53
2021/11/18 01:49:02;;;;;;;17.77;12.40;;;;;;;9.31;53.43;102412.91;1729652;82;21079;-56
2021/11/18 01:51:32;;;;;;;19.82;12.35;;;;;;;9.30;53.51;102404.65;1730518;81;21503;-55
2021/11/18 01:53:59;;;;;;;18.42;12.33;;;;;;;9.28;53.59;102402.05;1733391;81;20979;-56
2021/11/18 01:56:29;;;;;;;18.05;11.63;;;;;;;9.26;53.73;102397.27;1733089;81;21011;-57
2021/11/18 01:59:11;;;;;;;17.77;11.60;;;;;;;9.27;53.84;102397.72;1711016;82;21908;-56
2021/11/18 02:01:46;;;;;;;16.02;11.22;;;;;;;9.28;53.63;102396.84;1640515;85;21204;-57
2021/11/18 02:04:17;;;;;;;14.33;10.38;;;;;;;9.26;53.68;102387.30;1649581;85;21557;-56
2021/11/18 02:07:07;;;;;;;13.85;10.00;;;;;;;9.24;53.65;102396.37;1646195;85;21045;-57
2021/11/18 02:09:39;;;;;;;15.05;9.35;;;;;;;9.23;53.79;102393.36;1649705;85;21085;-56
2021/11/18 02:12:14;;;;;;;14.75;9.40;;;;;;;9.22;53.80;102388.12;1650651;85;21025;-54
2021/11/18 02:14:41;;;;;;;17.15;10.35;;;;;;;9.21;53.89;102392.89;1616293;88;21105;-53
2021/11/18 02:17:10;;;;;;;13.28;9.63;;;;;;;9.19;54.16;102395.45;1616686;88;21122;-54
2021/11/18 02:19:43;;;;;;;16.23;10.82;;;;;;;9.15;54.06;102393.67;1616567;88;21044;-56
2021/11/18 02:22:10;;;;;;;15.40;9.20;;;;;;;9.12;54.19;102393.66;1616633;88;21471;-58
2021/11/18 02:24:42;;;;;;;14.93;9.05;;;;;;;9.10;54.41;102394.08;1616569;88;21061;-56
2021/11/18 02:27:12;;;;;;;12.43;8.40;;;;;;;9.13;54.31;102398.44;1564949;90;21101;-57
2021/11/18 02:29:39;;;;;;;12.35;8.28;;;;;;;9.13;54.38;102394.09;1567211;91;21108;-57
2021/11/18 02:32:08;;;;;;;13.90;9.15;;;;;;;9.16;54.51;102395.44;1567412;90;21100;-59
2021/11/18 02:34:43;;;;;;;12.98;8.05;;;;;;;9.19;54.42;102401.94;1567586;90;21569;-57
2021/11/18 02:37:10;;;;;;;12.00;8.50;;;;;;;9.19;54.25;102396.75;1567363;90;21144;-54
2021/11/18 02:39:38;;;;;;;12.40;8.50;;;;;;;9.18;54.35;102392.42;1567588;90;21529;-56
2021/11/18 02:42:07;;;;;;;10.55;8.38;;;;;;;9.17;54.49;102397.16;1567506;90;21529;-53
2021/11/18 02:44:34;;;;;;;12.53;8.43;;;;;;;9.19;54.65;102403.23;1567313;90;21068;-54
2021/11/18 02:47:03;;;;;;;11.85;7.87;;;;;;;9.21;54.52;102404.13;1567434;90;21057;-58
2021/11/18 02:49:30;;;;;;;12.23;8.40;;;;;;;9.23;54.37;102403.75;1567507;90;21599;-59
2021/11/18 02:51:56;;;;;;;11.95;9.30;;;;;;;9.24;54.24;102402.87;1567526;90;21048;-57
2021/11/18 02:54:23;;;;;;;14.55;9.00;;;;;;;9.26;54.20;102406.36;1567496;90;21041;-56
2021/11/18 02:56:52;;;;;;;14.58;9.93;;;;;;;9.30;54.14;102410.72;1572417;89;21055;-57
2021/11/18 02:59:19;;;;;;;13.43;9.13;;;;;;;9.34;53.99;102416.39;1629456;87;21097;-59
2021/11/18 03:01:48;;;;;;;16.12;9.75;;;;;;;9.38;53.74;102423.36;1622115;87;21030;-55
2021/11/18 03:04:16;;;;;;;13.22;9.23;;;;;;;9.45;53.66;102426.47;1637116;86;21113;-56
2021/11/18 03:06:43;;;;;;;11.25;8.88;;;;;;;9.52;53.41;102423.50;1641460;86;21099;-57
2021/11/18 03:09:11;;;;;;;15.53;9.00;;;;;;;9.56;53.08;102432.61;1633444;86;21565;-56
2021/11/18 03:11:38;;;;;;;14.45;10.28;;;;;;;9.58;52.85;102443.89;1656212;84;21062;-58
2021/11/18 03:14:05;;;;;;;15.30;9.43;;;;;;;9.62;52.69;102442.22;1667543;84;21066;-57
2021/11/18 03:16:36;;;;;;;13.25;9.20;;;;;;;9.67;52.33;102440.09;1677436;84;21038;-55
2021/11/18 03:19:03;;;;;;;12.88;9.50;;;;;;;9.70;52.06;102437.53;1675110;85;20983;-57
2021/11/18 03:21:30;;;;;;;14.35;9.00;;;;;;;9.73;51.94;102436.23;1675955;84;21074;-57
2021/11/18 03:23:58;;;;;;;14.05;9.15;;;;;;;9.74;51.81;102440.59;1699014;82;20983;-56
2021/11/18 03:26:29;;;;;;;14.63;9.48;;;;;;;9.73;51.79;102438.84;1732434;81;21027;-56
2021/11/18 03:28:57;;;;;;;13.58;10.25;;;;;;;9.73;51.67;102436.23;1732164;81;21005;-57
2021/11/18 03:31:23;;;;;;;14.98;10.23;;;;;;;9.71;51.56;102424.95;1735224;81;21081;-56
2021/11/18 03:33:55;;;;;;;15.75;10.63;;;;;;;9.72;51.45;102431.03;1736008;81;21072;-53
2021/11/18 03:36:24;;;;;;;17.30;11.10;;;;;;;9.71;51.32;102435.35;1732911;81;21014;-57
2021/11/18 03:38:51;;;;;;;17.82;11.35;;;;;;;9.71;51.20;102437.95;1734012;81;21525;-55
2021/11/18 03:41:21;;;;;;;17.60;10.48;;;;;;;9.71;51.14;102437.95;1734202;81;21017;-57
2021/11/18 03:43:51;;;;;;;16.37;10.45;;;;;;;9.71;51.13;102435.35;1735160;82;21072;-57
2021/11/18 03:46:21;;;;;;;14.83;11.03;;;;;;;9.73;50.98;102440.14;1688429;84;21049;-54
2021/11/18 03:48:49;;;;;;;15.53;11.93;;;;;;;9.74;50.96;102441.89;1685313;83;21073;-56
2021/11/18 03:51:15;;;;;;;16.60;11.08;;;;;;;9.73;50.87;102436.23;1682824;83;21022;-57
2021/11/18 03:53:42;;;;;;;15.60;11.22;;;;;;;9.71;50.79;102437.95;1684315;83;21073;-57
2021/11/18 03:56:15;;;;;;;18.40;11.83;;;;;;;9.70;50.77;102440.13;1680966;84;21030;-55
2021/11/18 03:58:42;;;;;;;18.73;12.28;;;;;;;9.69;50.65;102440.97;1685545;83;21026;-56
2021/11/18 04:01:10;;;;;;;18.75;11.70;;;;;;;9.68;50.65;102435.34;1690418;83;21540;-56
2021/11/18 04:03:37;;;;;;;16.87;11.08;;;;;;;9.67;50.59;102438.78;1660548;86;21527;-57
2021/11/18 04:06:03;;;;;;;16.17;12.00;;;;;;;9.67;50.61;102442.69;1658942;86;21585;-57
2021/11/18 04:08:34;;;;;;;19.35;12.15;;;;;;;9.68;50.48;102445.74;1658730;84;21137;-56
2021/11/18 04:11:00;;;;;;;17.65;12.93;;;;;;;9.68;50.28;102437.95;1637071;87;21051;-56
2021/11/18 04:13:28;;;;;;;24.37;14.50;;;;;;;9.68;50.18;102445.74;1635494;86;21063;-58
2021/11/18 04:15:55;;;;;;;23.85;13.98;;;;;;;9.67;49.97;102443.11;1625005;86;21018;-57
2021/11/18 04:18:23;;;;;;;18.10;12.55;;;;;;;9.65;49.74;102440.50;1637602;86;21055;-57
2021/11/18 04:20:52;;;;;;;19.50;13.43;;;;;;;9.64;49.64;102446.54;1645734;86;21026;-54
2021/11/18 04:23:21;;;;;;;17.52;12.90;;;;;;;9.59;49.73;102445.65;1646917;85;21034;-56
2021/11/18 04:25:47;;;;;;;16.85;12.73;;;;;;;9.56;49.83;102444.30;1639574;86;21093;-58
2021/11/18 04:28:14;;;;;;;19.82;13.75;;;;;;;9.52;49.93;102436.05;1619741;89;21087;-56
2021/11/18 04:30:46;;;;;;;18.40;12.25;;;;;;;9.49;50.08;102433.44;1639459;86;21079;-55
2021/11/18 04:33:21;;;;;;;19.23;12.73;;;;;;;9.46;50.23;102430.79;1637922;86;21633;-54
2021/11/18 04:35:48;;;;;;;20.92;13.48;;;;;;;9.44;50.36;102432.50;1699888;83;21014;-56
2021/11/18 04:38:16;;;;;;;18.45;11.60;;;;;;;9.43;50.54;102432.08;1699627;84;21538;-54
2021/11/18 04:40:44;;;;;;;14.83;11.20;;;;;;;9.46;50.65;102421.70;1665295;85;20963;-54
2021/11/18 04:43:12;;;;;;;17.92;11.80;;;;;;;9.45;50.86;102412.17;1717166;80;21055;-58
2021/11/18 04:45:38;;;;;;;15.65;10.55;;;;;;;9.36;51.24;102409.48;1737864;81;20995;-55
2021/11/18 04:48:05;;;;;;;19.32;10.20;;;;;;;9.34;51.62;102413.79;1733963;81;21051;-58
2021/11/18 04:50:32;;;;;;;16.93;10.63;;;;;;;9.27;52.08;102423.70;1734265;81;21467;-57
2021/11/18 04:52:58;;;;;;;15.32;10.82;;;;;;;9.24;52.38;102431.44;1732566;81;21467;-56
2021/11/18 04:55:27;;;;;;;15.98;11.57;;;;;;;9.25;52.72;102437.52;1731189;81;21472;-53
2021/11/18 04:57:53;;;;;;;14.80;10.78;;;;;;;9.24;53.02;102436.64;1730827;81;21039;-58
2021/11/18 05:00:26;;;;;;;19.48;12.23;;;;;;;9.27;53.24;102443.59;1730979;81;21015;-57
2021/11/18 05:02:53;;;;;;;21.85;13.53;;;;;;;9.30;53.45;102448.39;1632735;87;21063;-56
2021/11/18 05:05:20;;;;;;;21.95;13.62;;;;;;;9.32;53.61;102450.57;1632551;87;21580;-55
2021/11/18 05:07:47;;;;;;;18.75;12.93;;;;;;;9.36;53.85;102447.15;1637569;86;21031;-58
2021/11/18 05:10:15;;;;;;;20.40;11.55;;;;;;;9.38;54.02;102451.93;1602867;88;21037;-57
2021/11/18 05:12:41;;;;;;;19.50;12.05;;;;;;;9.41;54.11;102459.77;1598115;88;21070;-54
2021/11/18 05:15:12;;;;;;;14.53;10.45;;;;;;;9.40;54.23;102465.80;1639458;86;21079;-56
2021/11/18 05:17:38;;;;;;;15.20;11.40;;;;;;;9.42;54.31;102469.30;1639329;86;21106;-60
2021/11/18 05:20:07;;;;;;;13.98;8.93;;;;;;;9.43;54.37;102469.75;1603275;88;21153;-60
2021/11/18 05:22:34;;;;;;;12.55;9.13;;;;;;;9.46;54.30;102472.36;1574490;89;21075;-57
2021/11/18 05:25:01;;;;;;;14.68;9.20;;;;;;;9.51;54.21;102472.00;1604815;89;21060;-57
2021/11/18 05:27:27;;;;;;;12.10;8.25;;;;;;;9.53;54.14;102472.00;1627715;86;21107;-56
2021/11/18 05:29:54;;;;;;;11.20;8.68;;;;;;;9.53;54.07;102468.98;1637126;86;21131;-55
2021/11/18 05:32:20;;;;;;;13.93;9.13;;;;;;;9.52;53.97;102468.98;1604782;88;21032;-57
2021/11/18 05:34:59;;;;;;;12.53;8.13;;;;;;;9.48;54.10;102465.45;1607802;89;21087;-57
2021/11/18 05:37:26;;;;;;;12.88;7.97;;;;;;;9.46;54.15;102468.92;1574079;90;21047;-55
2021/11/18 05:39:53;;;;;;;13.10;9.18;;;;;;;9.43;54.24;102463.67;1638263;86;21063;-56
2021/11/18 05:42:20;;;;;;;13.60;9.58;;;;;;;9.42;54.43;102469.71;1592334;88;21057;-53
2021/11/18 05:44:49;;;;;;;14.45;9.23;;;;;;;9.40;54.53;102467.11;1608448;89;21071;-56
2021/11/18 05:47:18;;;;;;;17.30;9.35;;;;;;;9.43;54.67;102466.27;1598685;88;21076;-55
2021/11/18 05:49:45;;;;;;;15.63;9.10;;;;;;;9.46;54.82;102467.16;1603402;89;21063;-56
2021/11/18 05:52:13;;;;;;;11.35;8.23;;;;;;;9.47;54.91;102465.03;1591229;88;21083;-57
2021/11/18 05:54:41;;;;;;;16.25;9.23;;;;;;;9.51;54.93;102465.50;1601782;89;21119;-54
2021/11/18 05:57:08;;;;;;;10.15;8.60;;;;;;;9.53;54.92;102468.11;1593370;88;21636;-56
2021/11/18 05:59:34;;;;;;;11.18;9.08;;;;;;;9.56;54.89;102476.79;1646005;84;21042;-53
2021/11/18 06:02:01;;;;;;;12.93;8.90;;;;;;;9.60;54.82;102478.56;1701016;83;21482;-57
2021/11/18 06:04:28;;;;;;;13.00;8.48;;;;;;;9.62;54.70;102482.05;1700694;84;21498;-58
2021/11/18 06:07:04;;;;;;;12.95;9.10;;;;;;;9.65;54.73;102479.48;1672610;85;21068;-56
2021/11/18 06:09:31;;;;;;;13.55;8.68;;;;;;;9.67;54.71;102476.89;1686349;84;21550;-57
2021/11/18 06:11:58;;;;;;;14.33;9.63;;;;;;;9.66;54.73;102481.25;1686351;84;21042;-58
2021/11/18 06:14:24;;;;;;;10.98;8.18;;;;;;;9.67;54.82;102479.49;1685666;85;21030;-53
2021/11/18 06:16:52;;;;;;;14.55;8.68;;;;;;;9.67;54.91;102481.67;1686165;84;21456;-55
2021/11/18 06:19:20;;;;;;;15.38;8.85;;;;;;;9.68;54.90;102480.83;1686036;84;21586;-56
2021/11/18 06:21:49;;;;;;;16.48;9.60;;;;;;;9.66;54.96;102481.25;1686033;84;21042;-56
2021/11/18 06:24:17;;;;;;;14.47;9.80;;;;;;;9.66;55.05;102479.95;1686108;84;21027;-54
2021/11/18 06:26:50;;;;;;;12.63;9.08;;;;;;;9.67;55.14;102477.77;1575619;90;21078;-55
2021/11/18 06:29:22;;;;;;;11.88;8.23;;;;;;;9.70;55.21;102476.52;1564219;90;21174;-57
2021/11/18 06:31:53;;;;;;;14.80;9.20;;;;;;;9.72;55.04;102478.70;1557043;90;21097;-56
2021/11/18 06:34:19;;;;;;;13.28;9.20;;;;;;;9.69;55.07;102470.86;1566994;90;21155;-57
2021/11/18 06:36:47;;;;;;;14.10;8.95;;;;;;;9.65;55.10;102469.09;1564738;91;21062;-53
2021/11/18 06:39:14;;;;;;;13.00;8.73;;;;;;;9.68;55.18;102473.45;1559251;91;21091;-57
2021/11/18 06:41:42;;;;;;;13.03;8.78;;;;;;;9.71;55.13;102466.55;1559147;91;21602;-56
2021/11/18 06:44:09;;;;;;;13.15;9.10;;;;;;;9.72;55.10;102463.11;1557849;91;21585;-53
2021/11/18 06:46:36;;;;;;;13.50;9.18;;;;;;;9.74;54.96;102466.59;1559254;91;21116;-54
2021/11/18 06:49:02;;;;;;;11.63;8.40;;;;;;;9.74;54.88;102462.69;1559280;92;21610;-57
2021/11/18 06:51:31;;;;;;;14.30;9.15;;;;;;;9.71;54.81;102457.87;1559103;91;21093;-55
2021/11/18 06:53:58;;;;;;;13.50;9.18;;;;;;;9.64;54.88;102459.53;1559174;91;21560;-56
2021/11/18 06:56:27;;;;;;;13.13;8.95;;;;;;;9.61;55.04;102450.84;1559181;91;21538;-56
2021/11/18 06:58:55;;;;;;;13.22;9.38;;;;;;;9.57;55.06;102452.56;1559241;91;21082;-57
2021/11/18 07:01:22;;;;;;;13.60;8.25;;;;;;;9.54;55.25;102453.81;1559301;91;21083;-58
2021/11/18 07:03:49;;;;;;;16.23;9.93;;;;;;;9.55;55.39;102455.58;1573226;90;21171;-54
2021/11/18 07:06:18;;;;;;;17.48;9.43;;;;;;;9.57;55.34;102447.36;1595892;90;21054;-54
2021/11/18 07:08:47;;;;;;;12.80;9.28;;;;;;;9.59;55.42;102454.74;1649214;86;21092;-58
2021/11/18 07:11:15;;;;;;;15.55;9.88;;;;;;;9.61;55.29;102454.33;1646329;86;21574;-53
2021/11/18 07:13:42;;;;;;;13.25;9.60;;;;;;;9.64;55.35;102458.23;1644211;86;21042;-56
2021/11/18 07:16:16;;;;;;;14.47;9.75;;;;;;;9.68;55.26;102453.55;1649505;86;21062;-55
2021/11/18 07:18:43;;;;;;;;;;;;;;;9.69;55.18;102452.67;1652805;86;21058;-56
2021/11/18 07:21:10;;;;;;;14.53;9.18;;;;;;;9.73;55.07;102451.83;1651604;86;20138;-57
2021/11/18 07:23:37;;;;;;;14.65;9.20;;;;;;;9.77;54.80;102452.30;1695194;82;21044;-56
2021/11/18 07:26:05;;;;;;;16.65;9.23;;;;;;;9.79;54.61;102446.69;1745261;81;21011;-55
2021/11/18 07:28:33;;;;;;;14.65;9.58;;;;;;;9.82;54.40;102448.02;1737268;81;21023;-56
2021/11/18 07:31:01;;;;;;;13.03;8.83;;;;;;;9.84;54.32;102450.20;1734075;81;21447;-55
2021/11/18 07:33:30;;;;;;;15.05;8.83;;;;;;;9.87;54.25;102451.09;1742148;81;21071;-57
2021/11/18 07:35:57;;;;;;;12.18;9.08;;;;;;;9.88;54.24;102459.31;1743333;81;21007;-57
2021/11/18 07:38:26;;;;;;;16.42;10.30;;;;;;;9.90;54.06;102457.59;1734261;81;21039;-55
2021/11/18 07:40:53;;;;;;;17.48;11.65;;;;;;;9.91;53.99;102462.84;1737972;81;21043;-56
2021/11/18 07:43:30;;;;;;;17.70;11.60;;;;;;;9.93;53.87;102466.73;1730701;81;21471;-57
2021/11/18 07:46:17;;;;;;;19.15;11.28;;;;;;;9.94;53.86;102468.46;1659626;85;21096;-56
2021/11/18 07:48:54;;;;;;;23.22;12.73;;;;;;;9.95;53.85;102470.22;1654562;86;21111;-57
2021/11/18 07:51:23;;;;;;;23.35;13.55;;;;;;;9.94;53.89;102468.46;1644605;86;21039;-55
2021/11/18 07:53:51;;;;;;;17.77;13.58;;;;;;;9.94;53.84;102471.06;1648853;86;21048;-53
2021/11/18 07:56:19;;;;;;;24.98;14.05;;;;;;;9.95;53.96;102480.63;1644060;86;21106;-55
2021/11/18 07:58:46;;;;;;;17.87;11.95;;;;;;;9.98;53.87;102480.63;1646647;86;21100;-53
2021/11/18 08:01:13;;;;;;;16.07;11.68;;;;;;;10.00;53.95;102484.99;1634108;87;21107;-56
2021/11/18 08:03:41;;;;;;;15.90;11.30;;;;;;;10.05;53.82;102491.53;1634963;87;21099;-53
2021/11/18 08:06:26;;;;;;;14.90;9.60;;;;;;;10.06;53.76;102483.73;1631470;85;21068;-54
2021/11/18 08:08:56;;;;;;;13.10;9.03;;;;;;;10.07;53.58;102492.00;1586519;89;21069;-58
2021/11/18 08:11:29;;;;;;;15.23;9.35;;;;;;;10.07;53.38;102495.02;1589304;89;21067;-53
2021/11/18 08:13:56;;;;;;;14.83;9.75;;;;;;;10.04;53.38;102494.98;1639100;86;21071;-57
2021/11/18 08:16:23;;;;;;;17.20;10.15;;;;;;;10.04;53.59;102488.48;1600950;88;20994;-56
2021/11/18 08:18:52;;;;;;;14.23;9.85;;;;;;;10.08;53.67;102483.73;1600723;88;21515;-59
2021/11/18 08:21:20;;;;;;;21.05;10.75;;;;;;;10.14;53.47;102487.75;1613128;88;21511;-54
2021/11/18 08:23:47;;;;;;;16.50;10.30;;;;;;;10.19;53.31;102486.03;1630036;86;21227;-55
2021/11/18 08:26:16;;;;;;;17.73;11.05;;;;;;;10.22;53.19;102491.28;1627572;86;21534;-54
2021/11/18 08:28:42;;;;;;;17.80;10.98;;;;;;;10.25;53.23;102494.77;1639027;86;21059;-56
2021/11/18 08:31:12;;;;;;;16.07;11.03;;;;;;;10.28;53.08;102490.86;1639402;86;21042;-57
2021/11/18 08:33:40;;;;;;;20.57;11.68;;;;;;;10.29;53.28;102487.84;1633520;86;21848;-57
2021/11/18 08:36:08;;;;;;;17.32;11.43;;;;;;;10.34;53.09;102487.45;1637966;86;21102;-56
2021/11/18 08:38:35;;;;;;;15.00;10.43;;;;;;;10.36;52.85;102487.03;1648633;86;21122;-58
2021/11/18 08:41:06;;;;;;;16.17;10.58;;;;;;;10.37;52.83;102479.65;1625047;86;21593;-57
2021/11/18 08:43:35;;;;;;;18.77;11.78;;;;;;;10.35;52.55;102490.48;1718591;82;21522;-59
2021/11/18 08:46:03;;;;;;;15.13;11.22;;;;;;;10.35;52.75;102493.08;1733665;81;21041;-57
2021/11/18 08:48:32;;;;;;;14.93;11.60;;;;;;;10.36;52.71;102489.64;1738489;81;21495;-55
2021/11/18 08:50:59;;;;;;;15.32;10.28;;;;;;;10.39;52.70;102485.73;1734279;81;20992;-58
2021/11/18 08:53:29;;;;;;;18.07;10.18;;;;;;;10.66;51.95;102484.60;1729070;81;21050;-56
2021/11/18 08:55:57;;;;;;;19.17;12.88;;;;;;;10.73;51.74;102483.78;1724324;82;21499;-56
2021/11/18 08:58:29;;;;;;;23.87;15.28;;;;;;;10.78;51.58;102476.84;1727618;81;21086;-57
2021/11/18 09:01:02;;;;;;;23.77;14.45;;;;;;;10.84;51.67;102479.48;1678150;84;21019;-57
2021/11/18 09:03:33;;;;;;;27.75;15.72;;;;;;;10.86;51.38;102476.45;1675702;84;21600;-54
2021/11/18 09:06:06;;;;;;;20.12;13.32;;;;;;;10.86;51.31;102480.36;1684467;83;21042;-54
2021/11/18 09:08:35;;;;;;;19.35;12.03;;;;;;;10.85;51.22;102468.22;1645942;86;21038;-59
2021/11/18 09:11:08;;;;;;;17.05;11.57;;;;;;;10.83;51.32;102469.94;1686542;84;21057;-54
2021/11/18 09:13:36;;;;;;;20.50;12.23;;;;;;;10.80;51.33;102466.01;1680507;83;21062;-53
2021/11/18 09:16:04;;;;;;;23.60;13.20;;;;;;;10.79;51.54;102453.87;1675176;84;21048;-55
2021/11/18 09:18:32;;;;;;;18.87;11.83;;;;;;;10.82;51.70;102448.66;1647761;86;21549;-57
2021/11/18 09:20:59;;;;;;;16.42;11.33;;;;;;;10.89;51.79;102443.92;1689243;83;21499;-55
2021/11/18 09:23:34;;;;;;;15.30;11.50;;;;;;;10.95;51.71;102445.25;1694130;83;21435;-55
2021/11/18 09:26:03;;;;;;;14.60;11.55;;;;;;;11.02;51.63;102445.72;1689368;83;21039;-58
2021/11/18 09:28:30;;;;;;;16.65;11.03;;;;;;;11.09;51.52;102438.34;1650024;86;21015;-57
2021/11/18 09:31:02;;;;;;;14.55;10.30;;;;;;;11.15;51.34;102439.66;1568154;90;21639;-58
2021/11/18 09:33:32;;;;;;;17.07;11.08;;;;;;;11.18;51.15;102434.47;1560435;91;21160;-56
2021/11/18 09:36:02;;;;;;;20.15;11.75;;;;;;;11.17;51.04;102436.63;1567069;91;21073;-59
2021/11/18 09:38:33;;;;;;;14.78;10.75;;;;;;;11.15;51.16;102431.84;1575737;90;21023;-57
2021/11/18 09:41:29;;;;;;;15.93;11.55;;;;;;;11.16;51.44;102427.08;1568220;90;21070;-62
2021/11/18 09:44:15;;;;;;;17.40;11.63;;;;;;;11.19;51.61;102425.77;1618688;88;21046;-57
2021/11/18 09:47:14;;;;;;;18.05;11.93;;;;;;;11.21;51.71;102420.13;1614143;88;21557;-59
2021/11/18 09:50:18;;;;;;;17.23;12.55;;;;;;;11.17;51.53;102420.98;1595322;88;21256;-60
2021/11/18 09:53:16;;;;;;;21.42;12.15;;;;;;;11.14;51.62;102422.30;1591854;89;21094;-60
2021/11/18 09:56:08;;;;;;;19.40;12.35;;;;;;;11.19;51.71;102426.23;1576345;89;21523;-58
2021/11/18 09:59:12;;;;;;;;;;;;;;;11.24;51.61;102423.18;1571526;89;21024;-54
2021/11/18 10:02:21;;;;;;;17.67;12.98;;;;;;;11.31;51.43;102414.06;1589344;88;20464;-58
2021/11/18 10:05:11;;;;;;;18.82;13.75;;;;;;;11.36;51.23;102404.53;1598848;88;21064;-60
2021/11/18 10:07:45;;;;;;;22.65;14.10;;;;;;;11.37;51.04;102408.85;1593708;88;21102;-56
2021/11/18 10:10:41;;;;;;;20.92;13.10;;;;;;;11.32;51.27;102400.61;1572834;89;21071;-58
2021/11/18 10:13:39;;;;;;;18.67;12.20;;;;;;;11.32;51.57;102398.88;1632902;87;20994;-58
2021/11/18 10:16:27;;;;;;;20.68;11.45;;;;;;;11.31;51.69;102397.58;1627018;87;21061;-57
2021/11/18 10:18:58;;;;;;;17.30;11.38;;;;;;;11.30;51.60;102403.64;1591085;88;21081;-55
2021/11/18 10:21:38;;;;;;;16.27;11.95;;;;;;;11.29;51.80;102401.47;1619698;86;21046;-54
2021/11/18 10:24:19;;;;;;;15.28;10.15;;;;;;;11.30;51.70;102398.44;1626205;87;21132;-61
2021/11/18 10:27:09;;;;;;;16.70;10.53;;;;;;;11.31;51.59;102394.52;1633343;87;21056;-60
2021/11/18 10:29:32;;;;;;;17.52;11.50;;;;;;;11.33;51.63;102391.94;1564562;90;21103;-57
2021/11/18 10:32:13;;;;;;;18.80;10.50;;;;;;;11.34;51.64;102395.84;1566769;90;21045;-55
2021/11/18 10:34:52;;;;;;;16.05;11.35;;;;;;;11.34;51.76;102395.84;1570501;90;21066;-55
2021/11/18 10:37:27;;;;;;;17.07;10.82;;;;;;;11.36;51.78;102392.80;1573809;90;21576;-56
2021/11/18 10:40:18;;;;;;;15.05;11.10;;;;;;;11.36;51.67;102398.02;1514372;93;21082;-54
2021/11/18 10:43:14;;;;;;;14.98;10.60;;;;;;;11.32;51.79;102391.06;1504733;93;21102;-57
2021/11/18 10:45:43;;;;;;;18.40;11.30;;;;;;;11.27;51.80;102397.98;1496202;93;21120;-57
2021/11/18 10:48:29;;;;;;;17.87;10.58;;;;;;;11.26;52.15;102385.84;1486098;95;21127;-57
2021/11/18 10:51:10;;;;;;;14.70;10.65;;;;;;;11.29;51.89;102379.31;1418246;99;21079;-58
2021/11/18 10:54:03;;;;;;;15.78;11.30;;;;;;;11.29;51.89;102364.98;1405746;101;21124;-57
2021/11/18 10:56:56;;;;;;;15.60;10.25;;;;;;;11.32;51.92;102369.33;1362880;104;22490;-59
2021/11/18 10:59:38;;;;;;;19.57;12.30;;;;;;;11.32;51.79;102375.42;1356911;103;21203;-58
2021/11/18 11:02:23;;;;;;;17.77;11.93;;;;;;;11.33;51.77;102371.93;1369260;104;21205;-56
2021/11/18 11:04:54;;;;;;;15.75;10.30;;;;;;;11.32;51.72;102366.30;1364520;104;21620;-56
2021/11/18 11:07:41;;;;;;;16.40;11.20;;;;;;;11.28;51.75;102367.59;1351856;104;21152;-59
2021/11/18 11:10:12;;;;;;;22.32;12.00;;;;;;;11.17;51.86;102363.67;1342068;106;21183;-60
2021/11/18 11:12:45;;;;;;;16.25;10.23;;;;;;;11.06;52.19;102364.11;1331530;106;21180;-56
2021/11/18 11:15:48;;;;;;;15.90;10.93;;;;;;;11.01;52.25;102361.03;1270858;111;21209;-54
2021/11/18 11:23:19;;;;;;;16.10;10.40;;;;;;;10.81;52.41;102358.83;1248037;114;21155;-62
2021/11/18 11:26:14;;;;;;;;;;;;;;;;;;;;;
2021/11/18 11:29:23;;;;;;;17.50;11.25;;;;;;;10.66;52.69;102351.83;1223916;115;21198;-58
2021/11/18 11:32:09;;;;;;;;;;;;;;;;;;;;;
2021/11/18 11:34:48;;;;;;;17.35;9.73;;;;;;;10.64;52.89;102353.14;1244024;114;21769;-55
2021/11/18 11:37:56;;;;;;;17.07;10.90;;;;;;;10.61;52.90;102345.30;1248154;113;21744;-55
2021/11/18 11:40:44;;;;;;;13.58;9.60;;;;;;;10.60;52.96;102344.01;1249077;113;21158;-56
2021/11/18 11:43:43;;;;;;;15.53;9.38;;;;;;;10.62;52.99;102343.58;1252853;113;21236;-58